sensor_id;sensor_type;location;lat;lon;timestamp;P1;durP1;ratioP1;P2;durP2;ratioP2
34405;SDS011;20658;45.630;8.886;2022-12-20T00:01:33;76.55;;;55.00;;
34405;SDS011;20658;45.630;8.886;2022-12-20T00:04:08;78.38;;;56.53;;
34405;SDS011;20658;45.630;8.886;2022-12-20T00:06:39;76.57;;;55.47;;
34405;SDS011;20658;45.630;8.886;2022-12-20T00:09:08;73.72;;;54.03;;
34405;SDS011;20658;45.630;8.886;2022-12-20T00:11:38;86.00;;;55.97;;
34405;SDS011;20658;45.630;8.886;2022-12-20T00:14:12;79.60;;;57.35;;
34405;SDS011;20658;45.630;8.886;2022-12-20T00:16:41;80.68;;;57.05;;
34405;SDS011;20658;45.630;8.886;2022-12-20T00:19:14;77.45;;;56.08;;
34405;SDS011;20658;45.630;8.886;2022-12-20T00:21:49;77.38;;;55.60;;
34405;SDS011;20658;45.630;8.886;2022-12-20T00:24:22;93.35;;;59.47;;
34405;SDS011;20658;45.630;8.886;2022-12-20T00:26:56;83.90;;;59.15;;
34405;SDS011;20658;45.630;8.886;2022-12-20T00:29:29;86.22;;;59.50;;
34405;SDS011;20658;45.630;8.886;2022-12-20T00:32:02;87.82;;;60.35;;
34405;SDS011;20658;45.630;8.886;2022-12-20T00:34:36;81.10;;;59.25;;
34405;SDS011;20658;45.630;8.886;2022-12-20T00:37:11;81.78;;;58.42;;
34405;SDS011;20658;45.630;8.886;2022-12-20T00:39:44;77.28;;;54.75;;
34405;SDS011;20658;45.630;8.886;2022-12-20T00:42:17;79.68;;;55.83;;
34405;SDS011;20658;45.630;8.886;2022-12-20T00:44:51;81.55;;;56.67;;
34405;SDS011;20658;45.630;8.886;2022-12-20T00:47:20;84.18;;;58.08;;
34405;SDS011;20658;45.630;8.886;2022-12-20T00:49:53;80.13;;;57.53;;
34405;SDS011;20658;45.630;8.886;2022-12-20T00:52:28;79.90;;;55.03;;
34405;SDS011;20658;45.630;8.886;2022-12-20T00:54:56;84.07;;;58.13;;
34405;SDS011;20658;45.630;8.886;2022-12-20T00:57:30;79.63;;;55.10;;
34405;SDS011;20658;45.630;8.886;2022-12-20T01:00:03;76.30;;;55.80;;
34405;SDS011;20658;45.630;8.886;2022-12-20T01:02:38;81.85;;;57.72;;
34405;SDS011;20658;45.630;8.886;2022-12-20T01:05:11;86.93;;;58.45;;
34405;SDS011;20658;45.630;8.886;2022-12-20T01:07:46;82.93;;;59.53;;
34405;SDS011;20658;45.630;8.886;2022-12-20T01:10:19;83.10;;;59.85;;
34405;SDS011;20658;45.630;8.886;2022-12-20T01:12:53;76.82;;;54.47;;
34405;SDS011;20658;45.630;8.886;2022-12-20T01:15:26;83.95;;;57.25;;
34405;SDS011;20658;45.630;8.886;2022-12-20T01:18:00;78.30;;;54.40;;
34405;SDS011;20658;45.630;8.886;2022-12-20T01:20:33;79.68;;;55.63;;
34405;SDS011;20658;45.630;8.886;2022-12-20T01:23:03;69.45;;;49.53;;
34405;SDS011;20658;45.630;8.886;2022-12-20T01:25:31;70.00;;;52.25;;
34405;SDS011;20658;45.630;8.886;2022-12-20T01:28:05;69.47;;;49.58;;
34405;SDS011;20658;45.630;8.886;2022-12-20T01:30:39;77.05;;;54.28;;
34405;SDS011;20658;45.630;8.886;2022-12-20T01:33:13;78.95;;;53.78;;
34405;SDS011;20658;45.630;8.886;2022-12-20T01:35:56;87.50;;;63.92;;
34405;SDS011;20658;45.630;8.886;2022-12-20T01:38:33;79.30;;;54.58;;
34405;SDS011;20658;45.630;8.886;2022-12-20T01:41:07;80.20;;;56.58;;
34405;SDS011;20658;45.630;8.886;2022-12-20T01:43:44;72.78;;;53.05;;
34405;SDS011;20658;45.630;8.886;2022-12-20T01:46:23;79.35;;;51.97;;
34405;SDS011;20658;45.630;8.886;2022-12-20T01:49:01;69.40;;;50.00;;
34405;SDS011;20658;45.630;8.886;2022-12-20T01:51:33;66.85;;;46.22;;
34405;SDS011;20658;45.630;8.886;2022-12-20T01:54:13;64.07;;;43.00;;
34405;SDS011;20658;45.630;8.886;2022-12-20T01:56:51;55.28;;;42.05;;
34405;SDS011;20658;45.630;8.886;2022-12-20T01:59:28;63.97;;;42.95;;
34405;SDS011;20658;45.630;8.886;2022-12-20T02:02:00;69.55;;;46.17;;
34405;SDS011;20658;45.630;8.886;2022-12-20T02:04:34;51.63;;;37.67;;
34405;SDS011;20658;45.630;8.886;2022-12-20T02:07:08;56.00;;;36.92;;
34405;SDS011;20658;45.630;8.886;2022-12-20T02:09:46;49.47;;;34.30;;
34405;SDS011;20658;45.630;8.886;2022-12-20T02:12:22;55.03;;;35.28;;
34405;SDS011;20658;45.630;8.886;2022-12-20T02:15:03;49.80;;;34.60;;
34405;SDS011;20658;45.630;8.886;2022-12-20T02:18:02;45.50;;;31.55;;
34405;SDS011;20658;45.630;8.886;2022-12-20T02:30:16;41.45;;;29.13;;
34405;SDS011;20658;45.630;8.886;2022-12-20T02:32:54;41.30;;;26.90;;
34405;SDS011;20658;45.630;8.886;2022-12-20T02:35:32;38.55;;;26.58;;
34405;SDS011;20658;45.630;8.886;2022-12-20T02:38:24;41.75;;;25.45;;
34405;SDS011;20658;45.630;8.886;2022-12-20T02:41:01;36.15;;;23.38;;
34405;SDS011;20658;45.630;8.886;2022-12-20T02:43:38;35.92;;;23.48;;
34405;SDS011;20658;45.630;8.886;2022-12-20T02:46:33;37.45;;;25.55;;
34405;SDS011;20658;45.630;8.886;2022-12-20T02:49:08;39.67;;;27.95;;
34405;SDS011;20658;45.630;8.886;2022-12-20T02:51:46;44.00;;;28.27;;
34405;SDS011;20658;45.630;8.886;2022-12-20T02:54:16;39.78;;;28.30;;
34405;SDS011;20658;45.630;8.886;2022-12-20T02:56:52;41.42;;;26.50;;
34405;SDS011;20658;45.630;8.886;2022-12-20T02:59:29;41.45;;;28.90;;
34405;SDS011;20658;45.630;8.886;2022-12-20T03:02:11;42.28;;;28.02;;
34405;SDS011;20658;45.630;8.886;2022-12-20T03:04:44;40.47;;;28.00;;
34405;SDS011;20658;45.630;8.886;2022-12-20T03:07:21;39.50;;;27.27;;
34405;SDS011;20658;45.630;8.886;2022-12-20T03:09:55;39.78;;;26.92;;
34405;SDS011;20658;45.630;8.886;2022-12-20T03:12:29;41.80;;;28.70;;
34405;SDS011;20658;45.630;8.886;2022-12-20T03:15:02;41.97;;;29.10;;
34405;SDS011;20658;45.630;8.886;2022-12-20T03:17:38;41.92;;;27.33;;
34405;SDS011;20658;45.630;8.886;2022-12-20T03:20:11;38.97;;;25.48;;
34405;SDS011;20658;45.630;8.886;2022-12-20T03:22:39;40.15;;;27.30;;
34405;SDS011;20658;45.630;8.886;2022-12-20T03:25:13;41.35;;;29.48;;
34405;SDS011;20658;45.630;8.886;2022-12-20T03:27:47;42.42;;;28.30;;
34405;SDS011;20658;45.630;8.886;2022-12-20T03:30:16;39.13;;;26.67;;
34405;SDS011;20658;45.630;8.886;2022-12-20T03:32:51;42.22;;;27.20;;
34405;SDS011;20658;45.630;8.886;2022-12-20T03:35:25;38.90;;;25.98;;
34405;SDS011;20658;45.630;8.886;2022-12-20T03:37:58;38.38;;;25.55;;
34405;SDS011;20658;45.630;8.886;2022-12-20T03:40:31;37.80;;;25.70;;
34405;SDS011;20658;45.630;8.886;2022-12-20T03:43:05;36.85;;;25.73;;
34405;SDS011;20658;45.630;8.886;2022-12-20T03:45:38;41.45;;;26.77;;
34405;SDS011;20658;45.630;8.886;2022-12-20T03:48:14;43.50;;;29.55;;
34405;SDS011;20658;45.630;8.886;2022-12-20T03:50:47;44.97;;;30.27;;
34405;SDS011;20658;45.630;8.886;2022-12-20T03:53:20;44.60;;;29.83;;
34405;SDS011;20658;45.630;8.886;2022-12-20T03:55:54;45.63;;;30.77;;
34405;SDS011;20658;45.630;8.886;2022-12-20T03:58:28;41.35;;;27.98;;
34405;SDS011;20658;45.630;8.886;2022-12-20T04:01:01;40.40;;;27.65;;
34405;SDS011;20658;45.630;8.886;2022-12-20T04:03:50;40.30;;;27.77;;
34405;SDS011;20658;45.630;8.886;2022-12-20T04:06:24;41.28;;;29.35;;
34405;SDS011;20658;45.630;8.886;2022-12-20T04:08:57;47.50;;;29.77;;
34405;SDS011;20658;45.630;8.886;2022-12-20T04:11:38;40.92;;;28.35;;
34405;SDS011;20658;45.630;8.886;2022-12-20T04:14:13;44.88;;;28.15;;
34405;SDS011;20658;45.630;8.886;2022-12-20T04:16:47;37.85;;;26.63;;
34405;SDS011;20658;45.630;8.886;2022-12-20T04:19:23;43.40;;;28.90;;
34405;SDS011;20658;45.630;8.886;2022-12-20T04:21:57;41.28;;;26.58;;
34405;SDS011;20658;45.630;8.886;2022-12-20T04:24:39;36.90;;;25.80;;
34405;SDS011;20658;45.630;8.886;2022-12-20T04:27:33;41.25;;;26.70;;
34405;SDS011;20658;45.630;8.886;2022-12-20T04:30:07;38.60;;;25.65;;
34405;SDS011;20658;45.630;8.886;2022-12-20T04:32:42;42.78;;;28.88;;
34405;SDS011;20658;45.630;8.886;2022-12-20T04:35:17;47.15;;;33.08;;
34405;SDS011;20658;45.630;8.886;2022-12-20T04:37:51;48.53;;;33.28;;
34405;SDS011;20658;45.630;8.886;2022-12-20T04:40:24;54.70;;;35.63;;
34405;SDS011;20658;45.630;8.886;2022-12-20T04:43:00;49.58;;;34.97;;
34405;SDS011;20658;45.630;8.886;2022-12-20T04:45:33;55.67;;;37.60;;
34405;SDS011;20658;45.630;8.886;2022-12-20T04:48:07;49.58;;;34.08;;
34405;SDS011;20658;45.630;8.886;2022-12-20T04:50:42;51.55;;;34.25;;
34405;SDS011;20658;45.630;8.886;2022-12-20T04:53:15;51.85;;;34.13;;
34405;SDS011;20658;45.630;8.886;2022-12-20T04:56:06;52.55;;;34.22;;
34405;SDS011;20658;45.630;8.886;2022-12-20T04:58:40;57.15;;;37.17;;
34405;SDS011;20658;45.630;8.886;2022-12-20T05:01:13;54.97;;;36.83;;
34405;SDS011;20658;45.630;8.886;2022-12-20T05:03:50;54.25;;;37.10;;
34405;SDS011;20658;45.630;8.886;2022-12-20T05:06:28;54.10;;;35.92;;
34405;SDS011;20658;45.630;8.886;2022-12-20T05:09:01;55.22;;;36.20;;
34405;SDS011;20658;45.630;8.886;2022-12-20T05:11:35;52.05;;;34.92;;
34405;SDS011;20658;45.630;8.886;2022-12-20T05:14:08;51.42;;;35.05;;
34405;SDS011;20658;45.630;8.886;2022-12-20T05:16:42;50.90;;;34.70;;
34405;SDS011;20658;45.630;8.886;2022-12-20T05:19:16;53.97;;;35.22;;
34405;SDS011;20658;45.630;8.886;2022-12-20T05:21:51;49.55;;;34.25;;
34405;SDS011;20658;45.630;8.886;2022-12-20T05:24:57;54.25;;;33.13;;
34405;SDS011;20658;45.630;8.886;2022-12-20T05:27:49;47.78;;;32.38;;
34405;SDS011;20658;45.630;8.886;2022-12-20T05:30:25;49.05;;;32.97;;
34405;SDS011;20658;45.630;8.886;2022-12-20T05:32:58;43.28;;;30.02;;
34405;SDS011;20658;45.630;8.886;2022-12-20T05:35:32;47.88;;;32.03;;
34405;SDS011;20658;45.630;8.886;2022-12-20T05:38:11;50.67;;;32.85;;
34405;SDS011;20658;45.630;8.886;2022-12-20T05:40:45;47.28;;;32.78;;
34405;SDS011;20658;45.630;8.886;2022-12-20T05:43:19;44.63;;;30.48;;
34405;SDS011;20658;45.630;8.886;2022-12-20T05:45:53;43.35;;;30.80;;
34405;SDS011;20658;45.630;8.886;2022-12-20T05:48:35;46.13;;;30.83;;
34405;SDS011;20658;45.630;8.886;2022-12-20T05:51:08;44.55;;;31.10;;
34405;SDS011;20658;45.630;8.886;2022-12-20T05:53:56;46.03;;;30.42;;
34405;SDS011;20658;45.630;8.886;2022-12-20T05:56:48;41.20;;;29.27;;
34405;SDS011;20658;45.630;8.886;2022-12-20T05:59:22;46.78;;;30.15;;
34405;SDS011;20658;45.630;8.886;2022-12-20T06:01:55;45.90;;;30.30;;
34405;SDS011;20658;45.630;8.886;2022-12-20T06:04:30;45.75;;;28.90;;
34405;SDS011;20658;45.630;8.886;2022-12-20T06:07:02;44.97;;;31.67;;
34405;SDS011;20658;45.630;8.886;2022-12-20T06:09:38;43.50;;;29.10;;
34405;SDS011;20658;45.630;8.886;2022-12-20T06:12:11;43.15;;;28.60;;
34405;SDS011;20658;45.630;8.886;2022-12-20T06:14:46;44.78;;;29.58;;
34405;SDS011;20658;45.630;8.886;2022-12-20T06:17:15;46.90;;;31.08;;
34405;SDS011;20658;45.630;8.886;2022-12-20T06:19:50;44.15;;;28.27;;
34405;SDS011;20658;45.630;8.886;2022-12-20T06:22:23;44.63;;;28.30;;
34405;SDS011;20658;45.630;8.886;2022-12-20T06:24:59;41.90;;;27.50;;
34405;SDS011;20658;45.630;8.886;2022-12-20T06:27:32;45.22;;;27.63;;
34405;SDS011;20658;45.630;8.886;2022-12-20T06:30:13;39.72;;;28.15;;
34405;SDS011;20658;45.630;8.886;2022-12-20T06:33:06;40.25;;;27.45;;
34405;SDS011;20658;45.630;8.886;2022-12-20T06:35:39;42.53;;;28.85;;
34405;SDS011;20658;45.630;8.886;2022-12-20T06:38:13;41.28;;;27.52;;
34405;SDS011;20658;45.630;8.886;2022-12-20T06:40:42;46.25;;;27.55;;
34405;SDS011;20658;45.630;8.886;2022-12-20T06:43:16;41.90;;;27.80;;
34405;SDS011;20658;45.630;8.886;2022-12-20T06:45:50;40.13;;;25.95;;
34405;SDS011;20658;45.630;8.886;2022-12-20T06:48:23;42.72;;;27.65;;
34405;SDS011;20658;45.630;8.886;2022-12-20T06:50:57;44.45;;;25.60;;
34405;SDS011;20658;45.630;8.886;2022-12-20T06:53:30;40.80;;;25.92;;
34405;SDS011;20658;45.630;8.886;2022-12-20T06:56:06;45.85;;;25.75;;
34405;SDS011;20658;45.630;8.886;2022-12-20T06:58:34;44.22;;;27.80;;
34405;SDS011;20658;45.630;8.886;2022-12-20T07:01:08;36.53;;;27.02;;
34405;SDS011;20658;45.630;8.886;2022-12-20T07:03:41;42.67;;;29.05;;
34405;SDS011;20658;45.630;8.886;2022-12-20T07:06:14;45.75;;;28.13;;
34405;SDS011;20658;45.630;8.886;2022-12-20T07:08:48;39.72;;;28.17;;
34405;SDS011;20658;45.630;8.886;2022-12-20T07:11:23;38.40;;;27.65;;
34405;SDS011;20658;45.630;8.886;2022-12-20T07:13:56;45.65;;;31.65;;
34405;SDS011;20658;45.630;8.886;2022-12-20T07:16:30;45.35;;;31.05;;
34405;SDS011;20658;45.630;8.886;2022-12-20T07:19:03;49.60;;;36.15;;
34405;SDS011;20658;45.630;8.886;2022-12-20T07:21:36;45.85;;;33.88;;
34405;SDS011;20658;45.630;8.886;2022-12-20T07:24:10;42.72;;;29.98;;
34405;SDS011;20658;45.630;8.886;2022-12-20T07:26:45;40.85;;;27.17;;
34405;SDS011;20658;45.630;8.886;2022-12-20T07:29:19;42.35;;;29.08;;
34405;SDS011;20658;45.630;8.886;2022-12-20T07:31:52;39.83;;;28.05;;
34405;SDS011;20658;45.630;8.886;2022-12-20T07:34:25;42.28;;;27.70;;
34405;SDS011;20658;45.630;8.886;2022-12-20T07:36:59;43.33;;;29.33;;
34405;SDS011;20658;45.630;8.886;2022-12-20T07:39:32;50.30;;;35.33;;
34405;SDS011;20658;45.630;8.886;2022-12-20T07:42:07;48.08;;;34.85;;
34405;SDS011;20658;45.630;8.886;2022-12-20T07:44:41;49.22;;;37.28;;
34405;SDS011;20658;45.630;8.886;2022-12-20T07:47:14;53.78;;;36.08;;
34405;SDS011;20658;45.630;8.886;2022-12-20T07:49:48;57.40;;;44.72;;
34405;SDS011;20658;45.630;8.886;2022-12-20T07:52:21;49.90;;;36.22;;
34405;SDS011;20658;45.630;8.886;2022-12-20T07:54:57;57.88;;;39.22;;
34405;SDS011;20658;45.630;8.886;2022-12-20T07:57:37;49.88;;;34.15;;
34405;SDS011;20658;45.630;8.886;2022-12-20T08:00:14;53.88;;;35.40;;
34405;SDS011;20658;45.630;8.886;2022-12-20T08:02:50;44.35;;;30.75;;
34405;SDS011;20658;45.630;8.886;2022-12-20T08:05:29;45.20;;;30.65;;
34405;SDS011;20658;45.630;8.886;2022-12-20T08:08:05;45.85;;;30.65;;
34405;SDS011;20658;45.630;8.886;2022-12-20T08:10:39;40.88;;;27.75;;
34405;SDS011;20658;45.630;8.886;2022-12-20T08:13:14;42.50;;;26.50;;
34405;SDS011;20658;45.630;8.886;2022-12-20T08:15:48;41.42;;;26.33;;
34405;SDS011;20658;45.630;8.886;2022-12-20T08:18:21;43.58;;;26.65;;
34405;SDS011;20658;45.630;8.886;2022-12-20T08:20:55;43.70;;;26.50;;
34405;SDS011;20658;45.630;8.886;2022-12-20T08:23:28;37.72;;;25.95;;
34405;SDS011;20658;45.630;8.886;2022-12-20T08:26:02;33.33;;;23.67;;
34405;SDS011;20658;45.630;8.886;2022-12-20T08:28:37;41.22;;;25.75;;
34405;SDS011;20658;45.630;8.886;2022-12-20T08:31:10;41.80;;;28.75;;
34405;SDS011;20658;45.630;8.886;2022-12-20T08:33:44;38.58;;;25.40;;
34405;SDS011;20658;45.630;8.886;2022-12-20T08:36:12;36.45;;;25.02;;
34405;SDS011;20658;45.630;8.886;2022-12-20T08:38:46;38.55;;;22.23;;
34405;SDS011;20658;45.630;8.886;2022-12-20T08:41:19;31.15;;;21.13;;
34405;SDS011;20658;45.630;8.886;2022-12-20T08:43:54;34.22;;;21.83;;
34405;SDS011;20658;45.630;8.886;2022-12-20T08:46:27;41.83;;;24.95;;
34405;SDS011;20658;45.630;8.886;2022-12-20T08:49:01;35.53;;;22.60;;
34405;SDS011;20658;45.630;8.886;2022-12-20T08:51:34;45.75;;;27.05;;
34405;SDS011;20658;45.630;8.886;2022-12-20T08:54:08;32.60;;;20.60;;
34405;SDS011;20658;45.630;8.886;2022-12-20T08:56:42;30.30;;;18.70;;
34405;SDS011;20658;45.630;8.886;2022-12-20T08:59:17;35.95;;;20.83;;
34405;SDS011;20658;45.630;8.886;2022-12-20T09:01:50;38.03;;;20.15;;
34405;SDS011;20658;45.630;8.886;2022-12-20T09:04:25;36.20;;;21.08;;
34405;SDS011;20658;45.630;8.886;2022-12-20T09:06:58;36.67;;;20.77;;
34405;SDS011;20658;45.630;8.886;2022-12-20T09:09:31;30.50;;;18.58;;
34405;SDS011;20658;45.630;8.886;2022-12-20T09:12:04;34.40;;;18.83;;
34405;SDS011;20658;45.630;8.886;2022-12-20T09:14:40;34.92;;;22.05;;
34405;SDS011;20658;45.630;8.886;2022-12-20T09:17:13;33.15;;;20.85;;
34405;SDS011;20658;45.630;8.886;2022-12-20T09:19:47;36.88;;;20.63;;
34405;SDS011;20658;45.630;8.886;2022-12-20T09:22:21;33.20;;;20.48;;
34405;SDS011;20658;45.630;8.886;2022-12-20T09:24:54;39.25;;;19.30;;
34405;SDS011;20658;45.630;8.886;2022-12-20T09:27:28;38.20;;;18.98;;
34405;SDS011;20658;45.630;8.886;2022-12-20T09:30:03;31.55;;;19.70;;
34405;SDS011;20658;45.630;8.886;2022-12-20T09:32:38;37.88;;;20.20;;
34405;SDS011;20658;45.630;8.886;2022-12-20T09:35:11;34.75;;;21.52;;
34405;SDS011;20658;45.630;8.886;2022-12-20T09:37:45;39.22;;;21.73;;
34405;SDS011;20658;45.630;8.886;2022-12-20T09:40:19;33.03;;;20.90;;
34405;SDS011;20658;45.630;8.886;2022-12-20T09:42:55;35.72;;;21.25;;
34405;SDS011;20658;45.630;8.886;2022-12-20T09:45:31;35.97;;;19.92;;
34405;SDS011;20658;45.630;8.886;2022-12-20T09:48:09;31.60;;;18.30;;
34405;SDS011;20658;45.630;8.886;2022-12-20T09:50:51;31.27;;;17.60;;
34405;SDS011;20658;45.630;8.886;2022-12-20T09:53:40;30.10;;;15.88;;
34405;SDS011;20658;45.630;8.886;2022-12-20T09:56:26;23.95;;;14.35;;
34405;SDS011;20658;45.630;8.886;2022-12-20T09:59:03;25.30;;;14.65;;
34405;SDS011;20658;45.630;8.886;2022-12-20T10:01:41;28.13;;;16.88;;
34405;SDS011;20658;45.630;8.886;2022-12-20T10:04:19;34.10;;;15.95;;
34405;SDS011;20658;45.630;8.886;2022-12-20T10:06:59;31.92;;;16.92;;
34405;SDS011;20658;45.630;8.886;2022-12-20T10:09:56;26.85;;;16.27;;
34405;SDS011;20658;45.630;8.886;2022-12-20T10:13:05;30.27;;;16.35;;
34405;SDS011;20658;45.630;8.886;2022-12-20T10:15:55;27.80;;;16.33;;
34405;SDS011;20658;45.630;8.886;2022-12-20T10:18:36;30.30;;;16.58;;
34405;SDS011;20658;45.630;8.886;2022-12-20T10:21:25;29.30;;;17.10;;
34405;SDS011;20658;45.630;8.886;2022-12-20T10:24:10;30.75;;;17.23;;
34405;SDS011;20658;45.630;8.886;2022-12-20T10:26:48;28.63;;;16.17;;
34405;SDS011;20658;45.630;8.886;2022-12-20T10:29:22;27.85;;;16.08;;
34405;SDS011;20658;45.630;8.886;2022-12-20T10:31:58;32.88;;;17.10;;
34405;SDS011;20658;45.630;8.886;2022-12-20T10:34:36;28.33;;;17.42;;
34405;SDS011;20658;45.630;8.886;2022-12-20T10:37:10;32.70;;;16.13;;
34405;SDS011;20658;45.630;8.886;2022-12-20T10:39:40;32.15;;;16.90;;
34405;SDS011;20658;45.630;8.886;2022-12-20T10:45:18;25.63;;;14.65;;
34405;SDS011;20658;45.630;8.886;2022-12-20T10:48:03;29.73;;;15.48;;
34405;SDS011;20658;45.630;8.886;2022-12-20T10:50:39;26.30;;;14.98;;
34405;SDS011;20658;45.630;8.886;2022-12-20T10:53:19;26.73;;;16.17;;
34405;SDS011;20658;45.630;8.886;2022-12-20T10:56:06;26.02;;;16.50;;
34405;SDS011;20658;45.630;8.886;2022-12-20T10:58:56;30.17;;;18.13;;
34405;SDS011;20658;45.630;8.886;2022-12-20T11:01:32;27.42;;;16.65;;
34405;SDS011;20658;45.630;8.886;2022-12-20T11:04:19;32.40;;;19.88;;
34405;SDS011;20658;45.630;8.886;2022-12-20T11:07:00;31.02;;;17.60;;
34405;SDS011;20658;45.630;8.886;2022-12-20T11:09:53;30.05;;;18.02;;
34405;SDS011;20658;45.630;8.886;2022-12-20T11:12:29;29.90;;;18.50;;
34405;SDS011;20658;45.630;8.886;2022-12-20T11:15:09;33.83;;;17.40;;
34405;SDS011;20658;45.630;8.886;2022-12-20T11:17:51;30.85;;;18.65;;
34405;SDS011;20658;45.630;8.886;2022-12-20T11:20:28;31.55;;;19.23;;
34405;SDS011;20658;45.630;8.886;2022-12-20T11:23:14;29.85;;;17.50;;
34405;SDS011;20658;45.630;8.886;2022-12-20T11:26:03;32.60;;;18.63;;
34405;SDS011;20658;45.630;8.886;2022-12-20T11:28:50;34.97;;;20.13;;
34405;SDS011;20658;45.630;8.886;2022-12-20T11:31:38;33.33;;;20.60;;
34405;SDS011;20658;45.630;8.886;2022-12-20T11:34:24;36.53;;;20.63;;
34405;SDS011;20658;45.630;8.886;2022-12-20T11:37:13;32.47;;;19.67;;
34405;SDS011;20658;45.630;8.886;2022-12-20T11:40:02;32.78;;;20.08;;
34405;SDS011;20658;45.630;8.886;2022-12-20T11:42:51;31.98;;;19.77;;
34405;SDS011;20658;45.630;8.886;2022-12-20T11:45:42;37.95;;;23.15;;
34405;SDS011;20658;45.630;8.886;2022-12-20T11:48:40;42.58;;;22.45;;
34405;SDS011;20658;45.630;8.886;2022-12-20T11:51:34;35.95;;;20.52;;
34405;SDS011;20658;45.630;8.886;2022-12-20T11:54:16;35.45;;;22.70;;
34405;SDS011;20658;45.630;8.886;2022-12-20T11:56:58;36.92;;;21.83;;
34405;SDS011;20658;45.630;8.886;2022-12-20T11:59:37;33.50;;;21.73;;
34405;SDS011;20658;45.630;8.886;2022-12-20T12:02:19;40.25;;;21.83;;
34405;SDS011;20658;45.630;8.886;2022-12-20T12:05:02;35.60;;;21.67;;
34405;SDS011;20658;45.630;8.886;2022-12-20T12:07:38;37.85;;;22.40;;
34405;SDS011;20658;45.630;8.886;2022-12-20T12:10:12;36.15;;;21.85;;
34405;SDS011;20658;45.630;8.886;2022-12-20T12:12:52;37.53;;;22.52;;
34405;SDS011;20658;45.630;8.886;2022-12-20T12:15:36;34.95;;;21.58;;
34405;SDS011;20658;45.630;8.886;2022-12-20T12:18:21;33.05;;;21.25;;
34405;SDS011;20658;45.630;8.886;2022-12-20T12:21:01;35.55;;;23.17;;
34405;SDS011;20658;45.630;8.886;2022-12-20T12:23:44;37.35;;;22.70;;
34405;SDS011;20658;45.630;8.886;2022-12-20T12:26:31;35.42;;;22.17;;
34405;SDS011;20658;45.630;8.886;2022-12-20T12:29:10;33.10;;;23.25;;
34405;SDS011;20658;45.630;8.886;2022-12-20T12:31:48;32.35;;;20.85;;
34405;SDS011;20658;45.630;8.886;2022-12-20T12:34:26;31.13;;;20.50;;
34405;SDS011;20658;45.630;8.886;2022-12-20T12:40:29;34.45;;;21.13;;
34405;SDS011;20658;45.630;8.886;2022-12-20T12:43:32;34.17;;;20.88;;
34405;SDS011;20658;45.630;8.886;2022-12-20T12:46:27;37.25;;;21.00;;
34405;SDS011;20658;45.630;8.886;2022-12-20T12:48:58;35.67;;;22.52;;
34405;SDS011;20658;45.630;8.886;2022-12-20T12:51:36;36.33;;;21.67;;
34405;SDS011;20658;45.630;8.886;2022-12-20T12:54:16;30.52;;;20.63;;
34405;SDS011;20658;45.630;8.886;2022-12-20T12:56:49;32.72;;;21.58;;
34405;SDS011;20658;45.630;8.886;2022-12-20T12:59:39;35.55;;;23.33;;
34405;SDS011;20658;45.630;8.886;2022-12-20T13:05:33;34.22;;;21.95;;
34405;SDS011;20658;45.630;8.886;2022-12-20T13:08:14;33.05;;;20.98;;
34405;SDS011;20658;45.630;8.886;2022-12-20T13:13:46;30.08;;;20.30;;
34405;SDS011;20658;45.630;8.886;2022-12-20T13:16:26;30.80;;;20.35;;
34405;SDS011;20658;45.630;8.886;2022-12-20T13:19:11;31.58;;;20.40;;
34405;SDS011;20658;45.630;8.886;2022-12-20T13:21:46;29.30;;;19.58;;
34405;SDS011;20658;45.630;8.886;2022-12-20T13:24:31;31.88;;;20.85;;
34405;SDS011;20658;45.630;8.886;2022-12-20T13:27:21;35.38;;;20.73;;
34405;SDS011;20658;45.630;8.886;2022-12-20T13:36:29;30.73;;;19.35;;
34405;SDS011;20658;45.630;8.886;2022-12-20T13:42:07;32.55;;;20.17;;
34405;SDS011;20658;45.630;8.886;2022-12-20T13:44:54;49.17;;;20.92;;
34405;SDS011;20658;45.630;8.886;2022-12-20T13:47:33;35.28;;;19.40;;
34405;SDS011;20658;45.630;8.886;2022-12-20T13:53:13;30.42;;;18.40;;
34405;SDS011;20658;45.630;8.886;2022-12-20T13:55:49;30.67;;;19.15;;
34405;SDS011;20658;45.630;8.886;2022-12-20T13:58:23;29.38;;;18.48;;
34405;SDS011;20658;45.630;8.886;2022-12-20T14:01:02;30.02;;;19.60;;
34405;SDS011;20658;45.630;8.886;2022-12-20T14:03:39;35.30;;;20.60;;
34405;SDS011;20658;45.630;8.886;2022-12-20T14:06:17;28.80;;;18.98;;
34405;SDS011;20658;45.630;8.886;2022-12-20T14:08:53;30.50;;;19.70;;
34405;SDS011;20658;45.630;8.886;2022-12-20T14:11:27;29.10;;;19.17;;
34405;SDS011;20658;45.630;8.886;2022-12-20T14:14:01;29.48;;;18.35;;
34405;SDS011;20658;45.630;8.886;2022-12-20T14:16:36;29.83;;;18.48;;
34405;SDS011;20658;45.630;8.886;2022-12-20T14:19:05;29.35;;;17.98;;
34405;SDS011;20658;45.630;8.886;2022-12-20T14:21:45;26.38;;;17.70;;
34405;SDS011;20658;45.630;8.886;2022-12-20T14:24:21;29.30;;;19.00;;
34405;SDS011;20658;45.630;8.886;2022-12-20T14:26:54;28.42;;;18.30;;
34405;SDS011;20658;45.630;8.886;2022-12-20T14:29:30;28.42;;;17.55;;
34405;SDS011;20658;45.630;8.886;2022-12-20T14:32:04;29.27;;;18.83;;
34405;SDS011;20658;45.630;8.886;2022-12-20T14:34:37;31.30;;;18.45;;
34405;SDS011;20658;45.630;8.886;2022-12-20T14:37:29;29.83;;;19.25;;
34405;SDS011;20658;45.630;8.886;2022-12-20T14:40:15;30.52;;;19.80;;
34405;SDS011;20658;45.630;8.886;2022-12-20T14:42:51;27.48;;;17.73;;
34405;SDS011;20658;45.630;8.886;2022-12-20T14:45:25;31.15;;;18.50;;
34405;SDS011;20658;45.630;8.886;2022-12-20T14:48:00;28.17;;;17.65;;
34405;SDS011;20658;45.630;8.886;2022-12-20T14:50:37;28.25;;;17.08;;
34405;SDS011;20658;45.630;8.886;2022-12-20T14:53:14;33.15;;;18.98;;
34405;SDS011;20658;45.630;8.886;2022-12-20T14:55:53;29.40;;;18.17;;
34405;SDS011;20658;45.630;8.886;2022-12-20T14:58:28;67.82;;;44.88;;
34405;SDS011;20658;45.630;8.886;2022-12-20T15:01:17;42.38;;;35.40;;
34405;SDS011;20658;45.630;8.886;2022-12-20T15:03:52;35.53;;;24.60;;
34405;SDS011;20658;45.630;8.886;2022-12-20T15:06:30;34.17;;;24.98;;
34405;SDS011;20658;45.630;8.886;2022-12-20T15:09:05;30.02;;;20.35;;
34405;SDS011;20658;45.630;8.886;2022-12-20T15:11:35;36.30;;;21.30;;
34405;SDS011;20658;45.630;8.886;2022-12-20T15:14:17;32.60;;;21.13;;
34405;SDS011;20658;45.630;8.886;2022-12-20T15:16:55;41.55;;;23.52;;
34405;SDS011;20658;45.630;8.886;2022-12-20T15:19:23;31.08;;;21.45;;
34405;SDS011;20658;45.630;8.886;2022-12-20T15:21:58;35.65;;;22.23;;
34405;SDS011;20658;45.630;8.886;2022-12-20T15:24:32;36.33;;;23.88;;
34405;SDS011;20658;45.630;8.886;2022-12-20T15:27:08;35.20;;;24.17;;
34405;SDS011;20658;45.630;8.886;2022-12-20T15:29:45;38.20;;;24.23;;
34405;SDS011;20658;45.630;8.886;2022-12-20T15:32:20;43.03;;;26.20;;
34405;SDS011;20658;45.630;8.886;2022-12-20T15:34:59;35.80;;;24.60;;
34405;SDS011;20658;45.630;8.886;2022-12-20T15:37:30;40.17;;;26.15;;
34405;SDS011;20658;45.630;8.886;2022-12-20T15:40:04;34.28;;;24.33;;
34405;SDS011;20658;45.630;8.886;2022-12-20T15:42:40;35.78;;;24.00;;
34405;SDS011;20658;45.630;8.886;2022-12-20T15:45:11;37.83;;;26.00;;
34405;SDS011;20658;45.630;8.886;2022-12-20T15:47:45;39.65;;;28.50;;
34405;SDS011;20658;45.630;8.886;2022-12-20T15:50:19;42.92;;;29.42;;
34405;SDS011;20658;45.630;8.886;2022-12-20T15:52:52;45.80;;;33.17;;